Tiempo atmosférico en la estación meteorológica de Tarazona, Zaragoza (475 m.)



Fecha
DESCASC
Temp. máxima en grados centígrados (hora)
DESCASC
Temp. mínima en grados centígrados (hora)
DESCASC
Temp. media en grados centígrados
DESCASC
Racha de viento máxima en m/sg (hora)
DESCASC
Velocidad máxima media en intervalos de 10 minutos(hora)
DESCASC
Precipitaciones diarias en mm
DESCASC
Precipitaciones de 00:00 a 06:00 en mm
DESCASC
Precipitaciones de 06:00 a 12:00 en mm
DESCASC
Precipitaciones de 12:00 a 18:00 en mm
DESCASC
Precipitaciones de 18:00 a 24:00 en mm
DESCASC
20-09-2020 22.1 (15:20) 13.6 (08:10) 17.9 7.78 (16:00) 4.72 (16:00) 8.4 0 0 1.6 6.8
19-09-2020 24.2 (13:50) 17.1 (09:20) 20.7 12.22 (14:50) 6.39 (05:40) 0.4 0 0 0.4 0
17-09-2020 29.1 (16:50) 19.5 (00:00) 24.3 10 (16:30) 5.28 (14:40) 0 0 0 0 0
16-09-2020 30.7 (15:30) 16.4 (06:50) 23.6 6.67 (16:50) 3.33 (16:20) 0 0 0 0 0
15-09-2020 30.7 (17:30) 18.5 (00:00) 24.6 7.78 (02:10) 3.89 (18:00) 0 0 0 0 0
14-09-2020 30.9 (14:40) 15.2 (00:00) 23 10 (17:00) 5.56 (14:20) 0 0 0 0 0
13-09-2020 32.3 (16:20) 15.5 (00:00) 23.9 9.72 (16:10) 5.83 (17:30) 0 0 0 0 0
12-09-2020 28.7 (17:20) 14.6 (07:40) 21.7 5.56 (11:40) 3.33 (22:30) 0 0 0 0 0
11-09-2020 28.9 (17:30) 15.5 (00:00) 22.2 7.22 (12:40) 3.61 (00:50) 0 0 0 0 0
10-09-2020 29.3 (15:40) 16.5 (00:00) 22.9 11.11 (17:10) 6.39 (17:30) 0 0 0 0 0
09-09-2020 28.6 (17:20) 13 (07:00) 20.8 12.78 (21:40) 5.83 (21:40) 0 0 0 0 0
08-09-2020 25.6 (17:10) 10.3 (00:00) 18 9.44 (00:10) 5.28 (00:20) 0 0 0 0 0
07-09-2020 22.4 (17:00) 14.1 (08:00) 18.3 15.28 (20:00) 8.33 (13:30) 0 0 0 0 0
06-09-2020 22.3 (16:50) 15 (00:00) 18.6 12.78 (14:30) 7.22 (16:00) 0 0 0 0 0
05-09-2020 28.8 (15:40) 15 (00:00) 21.9 10.56 (17:20) 6.39 (18:20) 0 0 0 0 0
04-09-2020 31.4 (16:40) 13.4 (00:00) 22.4 8.61 (16:30) 5 (17:30) 0 0 0 0 0
03-09-2020 28.9 (17:50) 9.8 (00:00) 19.3 5.83 (14:40) 3.06 (03:10) 0 0 0 0 0
02-09-2020 26.4 (17:50) 13.5 (00:00) 19.9 10 (11:50) 5.28 (11:40) 0 0 0 0 0
01-09-2020 25.5 (16:30) 14.1 (00:00) 19.8 11.11 (20:00) 5.56 (20:00) 0 0 0 0 0
31-08-2020 24.4 (17:30) 9.4 (00:00) 16.9 6.94 (11:30) 3.61 (10:30) 0 0 0 0 0
30-08-2020 19.9 (16:30) 9.8 (00:00) 14.8 13.33 (12:20) 6.94 (19:40) 0 0 0 0 0
29-08-2020 22.6 (16:30) 11.8 (00:00) 17.2 13.33 (17:40) 8.89 (17:40) 0 0 0 0 0
28-08-2020 23.9 (14:20) 16.3 (00:00) 20.1 11.67 (16:40) 6.39 (16:40) 0 0 0 0 0
27-08-2020 33.2 (17:10) 18.7 (00:00) 26 8.89 (20:30) 4.72 (20:40) 0 0 0 0 0
26-08-2020 32.7 (17:50) 16.4 (00:00) 24.6 7.78 (20:40) 3.61 (10:10) 0 0 0 0 0
25-08-2020 33.2 (16:30) 15.5 (00:00) 24.4 8.33 (22:20) 4.17 (17:20) 0 0 0 0 0
24-08-2020 27.8 (17:50) 14.8 (07:30) 21.3 9.17 (12:20) 5 (11:10) 0 0 0 0 0
23-08-2020 27.5 (17:10) 16.9 (00:00) 22.2 11.67 (14:40) 5.83 (18:30) 0 0 0 0 0

Gráficas

Temp. máximas Temp. mínimas Temp. medias Precipitaciones Rachas de viento máximas Velocidades máximas media en intervalos de 10 minutos

Datos horarios

Fecha y hora oficial Temperatura (ºC) Velocidad del viento (km/h) Dirección del viento Racha (km/h) Dirección de racha Precipitación (mm) Presión (hPa) Tendencia (hPa) Humedad (%)
2020-09-21 23:00:00 17.7 5 Oeste 18 Norte 0 -- -- 72
2020-09-21 22:00:00 18.8 12 Norte 20 Norte 0 -- -- 67
2020-09-21 21:00:00 19.5 6 Norte 12 Norte 0 -- -- 66
2020-09-21 20:00:00 20.6 6 Oeste 14 Norte 0 -- -- 63
2020-09-21 19:00:00 21.9 9 Norte 17 Nordeste 0 -- -- 51
2020-09-21 18:00:00 22.1 11 Norte 23 Norte 0 -- -- 53
2020-09-21 17:00:00 22.7 12 Norte 25 Noroeste 0 -- -- 53
2020-09-21 16:00:00 23.6 12 Norte 27 Norte 0 -- -- 51
2020-09-21 15:00:00 23.2 12 Norte 33 Norte 0 -- -- 54
2020-09-21 14:00:00 22.4 9 Noroeste 25 Noroeste 0 -- -- 57
2020-09-21 13:00:00 20.8 8 Noroeste 21 Norte 0 -- -- 62
2020-09-21 12:00:00 20.7 7 Noroeste 23 Norte 0 -- -- 64
2020-09-21 11:00:00 19.2 12 Noroeste 20 Norte 0 -- -- 67
2020-09-21 10:00:00 17.3 0 Calma 6 Este 0 -- -- 86
2020-09-21 09:00:00 15.9 0 Calma 6 Noroeste 0 -- -- 93
2020-09-21 08:00:00 15.8 3 Oeste 4 Noroeste 0 -- -- 93
2020-09-21 07:00:00 15.9 4 Sur 7 Sur 0 -- -- 91
2020-09-21 06:00:00 16.1 0 Calma 7 Nordeste 0 -- -- 91
2020-09-21 05:00:00 16 4 Oeste 8 Oeste 0 -- -- 91
2020-09-21 04:00:00 16.1 0 Calma 5 Oeste 0 -- -- 92
2020-09-21 03:00:00 16 2 Sudoeste 6 Oeste 0 -- -- 91
2020-09-21 02:00:00 16.1 3 Oeste 12 Noroeste 0 -- -- 91
2020-09-21 01:00:00 16.3 8 Noroeste 14 Noroeste 0 -- -- 89
2020-09-21 00:00:00 16.3 3 Noroeste 8 Sur 0 -- -- 90
2020-09-20 23:00:00 16.7 3 Sudeste 10 Oeste 0 -- -- 90
2020-09-20 22:00:00 16.6 0 Calma 14 Oeste 0 -- -- 90
2020-09-20 21:00:00 16.6 10 Oeste 21 Oeste 0.6 -- -- 91
2020-09-20 20:00:00 17.5 5 Oeste 17 Oeste 3.6 -- -- 89
2020-09-20 19:00:00 19 0 Calma 9 Sudeste 2.6 -- -- 87
2020-09-20 18:00:00 19 6 Sur 14 Norte 1.2 -- -- 85
2020-09-20 17:00:00 19.9 9 Nordeste 23 Norte 0.2 -- -- 77
2020-09-20 16:00:00 21.5 17 Noroeste 28 Noroeste 0.2 -- -- 71
2020-09-20 15:00:00 21.6 4 Sudeste 12 Nordeste 0 -- -- 64
2020-09-20 14:00:00 20.6 7 Norte 16 Nordeste 0 -- -- 67
2020-09-20 13:00:00 20.5 5 Nordeste 12 Este 0 -- -- 66
2020-09-20 12:00:00 19.2 7 Este 13 Nordeste 0 -- -- 69
2020-09-20 11:00:00 18.4 4 Este 9 Nordeste 0 -- -- 71
2020-09-20 10:00:00 17.6 2 Este 7 Sur 0 -- -- 72
2020-09-20 09:00:00 14.3 0 Calma 6 Sudoeste 0 -- -- 87
2020-09-20 08:00:00 13.7 0 Calma 7 Este 0 -- -- 86
2020-09-20 07:00:00 15.1 0 Calma 8 Este 0 -- -- 83
2020-09-20 06:00:00 17.5 4 Oeste 24 Oeste 0 -- -- 66
2020-09-20 05:00:00 17.9 10 Oeste 28 Oeste 0 -- -- 68
2020-09-20 04:00:00 18.4 11 Oeste 28 Oeste 0 -- -- 68
2020-09-20 03:00:00 18.4 9 Oeste 18 Oeste 0 -- -- 69
2020-09-20 02:00:00 18.2 10 Noroeste 17 Oeste 0 -- -- 70
2020-09-20 01:00:00 17.6 4 Oeste 15 Nordeste 0 -- -- 76
2020-09-20 00:00:00 18.1 3 Norte 21 Norte 0 -- -- 71
2020-09-19 23:00:00 18.6 11 Noroeste 32 Noroeste 0 -- -- 69
2020-09-19 22:00:00 18.4 6 Oeste 22 Oeste 0 -- -- 69
2020-09-19 21:00:00 19.2 10 Oeste 24 Oeste 0 -- -- 65
2020-09-19 20:00:00 19.9 6 Oeste 26 Oeste 0 -- -- 65
2020-09-19 19:00:00 19.8 10 Oeste 39 Oeste 0 -- -- 65
2020-09-19 18:00:00 20.3 17 Oeste 39 Oeste 0 -- -- 59
2020-09-19 17:00:00 19 12 Sudoeste 37 Sudoeste 0.2 -- -- 72
2020-09-19 16:00:00 20.7 11 Sudoeste 29 Sudoeste 0.2 -- -- 67
2020-09-19 15:00:00 23 19 Sudoeste 44 Sudoeste 0 -- -- 52
2020-09-19 14:00:00 23.8 15 Sudoeste 33 Sudoeste 0 -- -- 49
2020-09-19 13:00:00 19.9 0 Calma 14 Nordeste 0 -- -- 70
2020-09-19 12:00:00 19.6 5 Norte 23 Nordeste 0 -- -- 72
2020-09-19 11:00:00 18.6 6 Nordeste 21 Nordeste 0 -- -- 78
2020-09-19 10:00:00 17.3 9 Norte 17 Noroeste 0 -- -- 78
2020-09-19 09:00:00 17.3 9 Nordeste 29 Nordeste 0 -- -- 72
2020-09-19 08:00:00 18.2 16 Nordeste 27 Nordeste 0 -- -- 63
2020-09-19 07:00:00 18.8 5 Sudeste 27 Nordeste 0 -- -- 57
2020-09-19 06:00:00 19.2 12 Oeste 44 Sudoeste 0 -- -- 54
2020-09-19 05:00:00 19.6 15 Sudoeste 36 Sudoeste 0 -- -- 57
2020-09-19 04:00:00 18.7 10 Sudeste 24 Sudeste 0 -- -- 66
2020-09-19 03:00:00 17.8 6 Este 11 Nordeste 0 -- -- 68
2020-09-19 02:00:00 18.3 5 Oeste 23 Sudeste 0 -- -- 66
2020-09-19 01:00:00 19.6 9 Sudeste 24 Este 0 -- -- 57
2020-09-19 00:00:00 18.9 5 Sudeste 17 Este 0 -- -- 61
2020-09-18 23:00:00 19.3 3 Sudoeste 32 Este 0 -- -- 63
2020-09-18 22:00:00 19.8 14 Este 25 Este 0 -- -- 64
2020-09-18 21:00:00 19.7 7 Sur 15 Sudeste 0 -- -- 76
2020-09-18 20:00:00 19.6 2 Nordeste 15 Sur 0 -- -- 81
2020-09-18 19:00:00 20.4 5 Sudeste 26 Este 0 -- -- 76
2020-09-18 18:00:00 22.6 8 Nordeste 18 Nordeste 0 -- -- 66
2020-09-18 17:00:00 21 3 Este 22 Este 0 -- -- 71
2020-09-18 16:00:00 19.7 12 Sudeste 44 Sudeste 2.2 -- -- 76
2020-09-18 15:00:00 25.1 22 Sudeste 41 Sudeste 0 -- -- 46
2020-09-18 14:00:00 24.2 14 Sudeste 35 Sudeste 0 -- -- 53
2020-09-18 13:00:00 23.2 15 Sudeste 32 Sudeste 0 -- -- 63
2020-09-18 12:00:00 22.1 15 Sudeste 34 Sudeste 0 -- -- 66
2020-09-18 11:00:00 21.3 15 Sudeste 24 Sudeste 0 -- -- 71
2020-09-18 10:00:00 19.9 13 Sudeste 24 Sur 0 -- -- 76
2020-09-18 09:00:00 19.6 13 Sudeste 28 Sudeste 0 -- -- 76
2020-09-18 08:00:00 19.9 11 Sudeste 26 Sudeste 0 -- -- 74
2020-09-18 07:00:00 20 9 Sudeste 23 Sudeste 0 -- -- 71
2020-09-18 06:00:00 20.1 7 Sudoeste 12 Sudoeste 0 -- -- 73
2020-09-18 05:00:00 20.5 0 Calma 10 Sudoeste 0 -- -- 73
2020-09-18 04:00:00 20.9 3 Noroeste 13 Norte 0 -- -- 71
2020-09-18 03:00:00 21.8 5 Nordeste 22 Norte 0 -- -- 63
2020-09-18 02:00:00 23.1 5 Norte 26 Sudoeste 0 -- -- 58
2020-09-18 01:00:00 22.1 6 Este 13 Sur 0 -- -- 62
2020-09-18 00:00:00 20.4 5 Oeste 12 Oeste 0 -- -- 65
2020-09-17 23:00:00 22.1 3 Sudeste 11 Oeste 0 -- -- 59
2020-09-17 22:00:00 24.7 0 Calma 14 Oeste 0 -- -- 46
2020-09-17 21:00:00 26.5 6 Sudoeste 15 Sudeste 0 -- -- 41
2020-09-17 20:00:00 27 9 Este 23 Sur 0 -- -- 39
2020-09-17 19:00:00 27.8 14 Sudeste 29 Este 0 -- -- 36
2020-09-17 18:00:00 28 15 Sudeste 29 Este 0 -- -- 39
2020-09-17 17:00:00 29.1 15 Sudeste 36 Este 0 -- -- 40
2020-09-17 16:00:00 28.7 14 Sudeste 35 Sudeste 0 -- -- 41
2020-09-17 15:00:00 28 13 Sudeste 34 Este 0 -- -- 42
2020-09-17 14:00:00 27.2 17 Este 34 Este 0 -- -- 47
2020-09-17 13:00:00 26.1 12 Este 21 Este 0 -- -- 52
2020-09-17 12:00:00 25.2 8 Nordeste 14 Nordeste 0 -- -- 58
2020-09-17 11:00:00 23.6 0 Calma 8 Noroeste 0 -- -- 64
2020-09-17 10:00:00 21.5 5 Oeste 8 Oeste 0 -- -- 68
2020-09-17 09:00:00 20 3 Sudoeste 7 Noroeste 0 -- -- 76
2020-09-17 08:00:00 20.6 4 Oeste 9 Sudeste 0 -- -- 73
2020-09-17 07:00:00 21.3 5 Sur 14 Sudoeste 0 -- -- 70
2020-09-17 06:00:00 19.5 3 Sudoeste 8 Oeste 0 -- -- 67
2020-09-17 05:00:00 19.9 0 Calma 10 Oeste 0 -- -- 64
2020-09-17 04:00:00 20.2 6 Sur 13 Oeste 0 -- -- 63
2020-09-17 03:00:00 19.7 6 Oeste 12 Oeste 0 -- -- 59
2020-09-17 02:00:00 20.2 2 Oeste 13 Noroeste 0 -- -- 57
2020-09-17 01:00:00 21.2 4 Oeste 9 Oeste 0 -- -- 53
2020-09-17 00:00:00 21.9 3 Oeste 7 Noroeste 0 -- -- 53
2020-09-16 23:00:00 22.7 0 Calma 12 Oeste 0 -- -- 51
2020-09-16 22:00:00 23.5 2 Oeste 10 Oeste 0 -- -- 49
2020-09-16 21:00:00 24.4 7 Oeste 9 Oeste 0 -- -- 47
2020-09-16 20:00:00 27.4 0 Calma 13 Sudeste 0 -- -- 43
2020-09-16 19:00:00 29.7 5 Sudeste 15 Sudeste 0 -- -- 35
2020-09-16 18:00:00 30.1 5 Sudeste 16 Este 0 -- -- 34
2020-09-16 17:00:00 30.7 10 Sudeste 24 Este 0 -- -- 34
2020-09-16 16:00:00 30.1 10 Nordeste 21 Nordeste 0 -- -- 36
2020-09-16 15:00:00 29.7 10 Nordeste 19 Nordeste 0 -- -- 39
2020-09-16 14:00:00 28.1 8 Nordeste 15 Nordeste 0 -- -- 45
2020-09-16 13:00:00 26.8 6 Nordeste 12 Nordeste 0 -- -- 48
2020-09-16 12:00:00 25.7 6 Este 13 Este 0 -- -- 49
2020-09-16 11:00:00 23.7 6 Nordeste 11 Nordeste 0 -- -- 53
2020-09-16 10:00:00 21.8 0 Calma 4 Noroeste 0 -- -- 61
2020-09-16 09:00:00 18 0 Calma 9 Oeste 0 -- -- 68
2020-09-16 08:00:00 16.7 5 Oeste 9 Oeste 0 -- -- 70
2020-09-16 07:00:00 16.6 7 Oeste 10 Oeste 0 -- -- 70
2020-09-16 06:00:00 16.9 5 Oeste 7 Oeste 0 -- -- 68
2020-09-16 05:00:00 16.8 3 Oeste 12 Oeste 0 -- -- 68
2020-09-16 04:00:00 17.6 4 Oeste 9 Oeste 0 -- -- 65
2020-09-16 03:00:00 18.2 3 Sudoeste 13 Oeste 0 -- -- 62
2020-09-16 02:00:00 18.9 6 Oeste 10 Oeste 0 -- -- 59
2020-09-16 01:00:00 20.1 8 Noroeste 11 Noroeste 0 -- -- 55
2020-09-16 00:00:00 21.3 2 Sudoeste 8 Sudoeste 0 -- -- 54
2020-09-15 23:00:00 21.6 3 Oeste 9 Oeste 0 -- -- 57
2020-09-15 22:00:00 23.3 5 Oeste 12 Sur 0 -- -- 54
2020-09-15 21:00:00 24.5 4 Oeste 10 Oeste 0 -- -- 52
2020-09-15 20:00:00 27.9 4 Este 10 Sudeste 0 -- -- 42
2020-09-15 19:00:00 28.8 3 Este 18 Este 0 -- -- 40
2020-09-15 18:00:00 29.6 14 Este 27 Este 0 -- -- 38
2020-09-15 17:00:00 30.1 8 Nordeste 23 Este 0 -- -- 35
2020-09-15 16:00:00 29.5 7 Nordeste 25 Este 0 -- -- 38
2020-09-15 15:00:00 29.4 13 Nordeste 23 Este 0 -- -- 40
2020-09-15 14:00:00 28.3 9 Nordeste 21 Nordeste 0 -- -- 45
2020-09-15 13:00:00 27.1 9 Este 17 Nordeste 0 -- -- 47
2020-09-15 12:00:00 25.1 9 Nordeste 17 Nordeste 0 -- -- 54
2020-09-15 11:00:00 24.5 7 Este 13 Este 0 -- -- 52
2020-09-15 10:00:00 20.3 6 Sudoeste 12 Sudoeste 0 -- -- 70
2020-09-15 09:00:00 19 2 Oeste 11 Oeste 0 -- -- 75
2020-09-15 08:00:00 18.5 3 Oeste 11 Oeste 0 -- -- 77
2020-09-15 07:00:00 19.1 4 Noroeste 9 Oeste 0 -- -- 75
2020-09-15 06:00:00 19.7 4 Oeste 12 Oeste 0 -- -- 72
2020-09-15 05:00:00 20.8 4 Sudoeste 21 Sudeste 0 -- -- 66
2020-09-15 04:00:00 21.3 4 Sudoeste 18 Este 0 -- -- 64
2020-09-15 03:00:00 21.7 13 Este 28 Sudeste 0 -- -- 61
2020-09-15 02:00:00 22.2 12 Sudeste 25 Este 0 -- -- 61
2020-09-15 01:00:00 23.1 5 Norte 10 Nordeste 0 -- -- 54
2020-09-15 00:00:00 25 4 Sur 17 Sur 0 -- -- 46
2020-09-14 23:00:00 24.7 10 Sur 17 Sudeste 0 -- -- 47
2020-09-14 22:00:00 24.5 4 Sur 10 Sudoeste 0 -- -- 44
2020-09-14 21:00:00 26.7 5 Sudoeste 10 Sur 0 -- -- 37
2020-09-14 20:00:00 28.1 6 Sudeste 18 Sudeste 0 -- -- 34
2020-09-14 19:00:00 28.9 11 Sudeste 32 Sudeste 0 -- -- 30
2020-09-14 18:00:00 30.6 15 Sudeste 36 Sudeste 0 -- -- 29
2020-09-14 17:00:00 29.6 20 Sudeste 36 Sudeste 0 -- -- 31
2020-09-14 16:00:00 29.7 15 Sudeste 33 Sudeste 0 -- -- 31
2020-09-14 15:00:00 30.4 17 Sudeste 32 Este 0 -- -- 32
2020-09-14 14:00:00 29.9 15 Este 27 Este 0 -- -- 33
2020-09-14 13:00:00 28.2 14 Este 25 Este 0 -- -- 37
2020-09-14 12:00:00 26.2 5 Nordeste 12 Noroeste 0 -- -- 41
2020-09-14 11:00:00 23.5 6 Nordeste 11 Este 0 -- -- 50
2020-09-14 10:00:00 19.8 0 Calma 8 Oeste 0 -- -- 58
2020-09-14 09:00:00 16 6 Oeste 10 Oeste 0 -- -- 67
2020-09-14 08:00:00 15.2 6 Oeste 12 Oeste 0 -- -- 67
2020-09-14 07:00:00 16 9 Oeste 13 Oeste 0 -- -- 63
2020-09-14 06:00:00 16.1 6 Oeste 11 Oeste 0 -- -- 63
2020-09-14 05:00:00 16.3 4 Oeste 13 Oeste 0 -- -- 61
2020-09-14 04:00:00 17 4 Oeste 10 Oeste 0 -- -- 59
2020-09-14 03:00:00 18.6 6 Oeste 15 Noroeste 0 -- -- 55
2020-09-14 02:00:00 21.3 8 Noroeste 13 Oeste 0 -- -- 48
2020-09-14 01:00:00 22.4 3 Este 16 Este 0 -- -- 43
2020-09-14 00:00:00 23.1 7 Este 14 Este 0 -- -- 37
2020-09-13 23:00:00 25.6 8 Sur 14 Sur 0 -- -- 29
2020-09-13 22:00:00 26.5 8 Sudeste 14 Sudeste 0 -- -- 31
2020-09-13 21:00:00 25.9 2 Oeste 11 Nordeste 0 -- -- 36
2020-09-13 20:00:00 28.5 10 Nordeste 24 Este 0 -- -- 31
2020-09-13 19:00:00 30.7 16 Este 35 Este 0 -- -- 29
2020-09-13 18:00:00 32 17 Sudeste 35 Este 0 -- -- 27
2020-09-13 17:00:00 32.2 17 Este 35 Sudeste 0 -- -- 28
2020-09-13 16:00:00 32 15 Este 32 Este 0 -- -- 31
2020-09-13 15:00:00 31.3 12 Este 27 Este 0 -- -- 32
2020-09-13 14:00:00 30.1 10 Sudeste 23 Este 0 -- -- 35
2020-09-13 13:00:00 27.7 9 Sudeste 18 Sudeste 0 -- -- 40
2020-09-13 12:00:00 25.6 5 Este 13 Norte 0 -- -- 49
2020-09-13 11:00:00 23.1 6 Nordeste 12 Este 0 -- -- 58
2020-09-13 10:00:00 20.5 2 Sudeste 5 Este 0 -- -- 63
2020-09-13 09:00:00 16.9 0 Calma 4 Noroeste 0 -- -- 69
2020-09-13 08:00:00 15.6 3 Oeste 10 Oeste 0 -- -- 68
2020-09-13 07:00:00 15.7 6 Oeste 12 Oeste 0 -- -- 66
2020-09-13 06:00:00 15.8 3 Sudoeste 9 Oeste 0 -- -- 64
2020-09-13 05:00:00 17 4 Oeste 7 Oeste 0 -- -- 59
2020-09-13 04:00:00 17.8 4 Oeste 9 Oeste 0 -- -- 57
2020-09-13 03:00:00 18.5 4 Oeste 16 Sudoeste 0 -- -- 55
2020-09-13 02:00:00 18.8 7 Oeste 17 Sudoeste 0 -- -- 57
2020-09-13 01:00:00 19 8 Oeste 15 Sudoeste 0 -- -- 56
2020-09-13 00:00:00 18.8 4 Oeste 13 Noroeste 0 -- -- 58
2020-09-12 23:00:00 19.4 5 Oeste 17 Oeste 0 -- -- 57
2020-09-12 22:00:00 20.6 8 Oeste 14 Oeste 0 -- -- 56
2020-09-12 21:00:00 22.5 4 Oeste 11 Oeste 0 -- -- 50
2020-09-12 20:00:00 27.4 0 Calma 10 Nordeste 0 -- -- 40
2020-09-12 19:00:00 28.1 5 Este 12 Nordeste 0 -- -- 37
2020-09-12 18:00:00 28.4 6 Nordeste 18 Nordeste 0 -- -- 38
2020-09-12 17:00:00 28.6 6 Nordeste 19 Nordeste 0 -- -- 38
2020-09-12 16:00:00 28.2 8 Este 19 Nordeste 0 -- -- 41
2020-09-12 15:00:00 27.4 9 Nordeste 18 Norte 0 -- -- 41
2020-09-12 14:00:00 26.4 7 Este 19 Este 0 -- -- 46
2020-09-12 13:00:00 25.4 8 Este 18 Este 0 -- -- 48
2020-09-12 12:00:00 23.8 9 Este 20 Nordeste 0 -- -- 52
2020-09-12 11:00:00 23 7 Norte 12 Norte 0 -- -- 56
2020-09-12 10:00:00 20.6 4 Este 8 Oeste 0 -- -- 64
2020-09-12 09:00:00 17.2 6 Oeste 18 Oeste 0 -- -- 71
2020-09-12 08:00:00 15 10 Oeste 14 Oeste 0 -- -- 75
2020-09-12 07:00:00 14.9 2 Oeste 16 Oeste 0 -- -- 75
2020-09-12 06:00:00 15.3 6 Oeste 10 Oeste 0 -- -- 75
2020-09-12 05:00:00 15.6 2 Oeste 9 Oeste 0 -- -- 78
2020-09-12 04:00:00 16 9 Oeste 12 Oeste 0 -- -- 77
2020-09-12 03:00:00 16.3 5 Oeste 11 Oeste 0 -- -- 77
2020-09-12 02:00:00 17.6 4 Oeste 14 Oeste 0 -- -- 73
2020-09-12 01:00:00 19.2 2 Sudoeste 12 Oeste 0 -- -- 68
2020-09-12 00:00:00 20.5 5 Oeste 10 Oeste 0 -- -- 64
2020-09-11 23:00:00 21.8 6 Oeste 13 Noroeste 0 -- -- 60
2020-09-11 22:00:00 23 8 Noroeste 18 Noroeste 0 -- -- 56
2020-09-11 21:00:00 23.9 9 Norte 14 Noroeste 0 -- -- 49
2020-09-11 20:00:00 27.1 4 Nordeste 14 Norte 0 -- -- 40
2020-09-11 19:00:00 28.4 8 Norte 24 Norte 0 -- -- 35
2020-09-11 18:00:00 28.7 8 Norte 20 Norte 0 -- -- 35
2020-09-11 17:00:00 28.5 7 Norte 22 Norte 0 -- -- 37
2020-09-11 16:00:00 27.6 11 Nordeste 24 Norte 0 -- -- 40
2020-09-11 15:00:00 26.9 12 Nordeste 23 Este 0 -- -- 44
2020-09-11 14:00:00 26.1 9 Nordeste 21 Nordeste 0 -- -- 46
2020-09-11 13:00:00 25.2 7 Norte 26 Norte 0 -- -- 49
2020-09-11 12:00:00 23.8 9 Nordeste 18 Norte 0 -- -- 53
2020-09-11 11:00:00 22.7 7 Norte 18 Nordeste 0 -- -- 57
2020-09-11 10:00:00 20.7 9 Oeste 15 Oeste 0 -- -- 60
2020-09-11 09:00:00 18 7 Oeste 14 Oeste 0 -- -- 67
2020-09-11 08:00:00 15.8 8 Oeste 15 Oeste 0 -- -- 71
2020-09-11 07:00:00 15.8 9 Oeste 15 Oeste 0 -- -- 71
2020-09-11 06:00:00 15.7 9 Oeste 16 Oeste 0 -- -- 70
2020-09-11 05:00:00 16.5 7 Oeste 16 Oeste 0 -- -- 65
2020-09-11 04:00:00 16.6 7 Oeste 16 Oeste 0 -- -- 62
2020-09-11 03:00:00 16.5 8 Oeste 14 Oeste 0 -- -- 62
2020-09-11 02:00:00 17.5 9 Oeste 18 Oeste 0 -- -- 60
2020-09-11 01:00:00 17.8 8 Oeste 18 Oeste 0 -- -- 59
2020-09-11 00:00:00 18.6 5 Oeste 20 Oeste 0 -- -- 54
2020-09-10 23:00:00 19.5 12 Oeste 17 Noroeste 0 -- -- 49
2020-09-10 22:00:00 21.2 8 Noroeste 19 Noroeste 0 -- -- 46
2020-09-10 21:00:00 23.1 8 Noroeste 21 Norte 0 -- -- 42
2020-09-10 20:00:00 25.4 12 Norte 31 Norte 0 -- -- 38
2020-09-10 19:00:00 27 18 Norte 35 Norte 0 -- -- 33
2020-09-10 18:00:00 28.3 18 Norte 40 Norte 0 -- -- 31
2020-09-10 17:00:00 29 19 Norte 37 Norte 0 -- -- 29
2020-09-10 16:00:00 29.2 21 Norte 37 Norte 0 -- -- 29
2020-09-10 15:00:00 28.5 19 Noroeste 37 Norte 0 -- -- 32
2020-09-10 14:00:00 27.7 19 Norte 39 Noroeste 0 -- -- 33
2020-09-10 13:00:00 26.9 16 Norte 35 Norte 0 -- -- 35
2020-09-10 12:00:00 26.2 15 Norte 30 Norte 0 -- -- 36
2020-09-10 11:00:00 24.9 13 Norte 29 Norte 0 -- -- 38
2020-09-10 10:00:00 22.7 8 Noroeste 19 Norte 0 -- -- 43
2020-09-10 09:00:00 19.1 6 Oeste 19 Oeste 0 -- -- 58
2020-09-10 08:00:00 16.7 10 Oeste 15 Oeste 0 -- -- 63
2020-09-10 07:00:00 17 7 Oeste 18 Oeste 0 -- -- 61
2020-09-10 06:00:00 16.6 6 Oeste 15 Oeste 0 -- -- 62
2020-09-10 05:00:00 16.6 8 Oeste 12 Oeste 0 -- -- 62
2020-09-10 04:00:00 17.1 4 Oeste 14 Oeste 0 -- -- 60
2020-09-10 03:00:00 18.2 5 Oeste 17 Oeste 0 -- -- 56
2020-09-10 02:00:00 19.3 4 Noroeste 23 Norte 0 -- -- 53
2020-09-10 01:00:00 19.9 12 Norte 29 Norte 0 -- -- 54
2020-09-10 00:00:00 20.6 14 Norte 35 Norte 0 -- -- 55
2020-09-09 23:00:00 21.8 19 Norte 40 Norte 0 -- -- 54
2020-09-09 22:00:00 23 18 Noroeste 46 Noroeste 0 -- -- 50
2020-09-09 21:00:00 24.2 16 Noroeste 33 Norte 0 -- -- 45
2020-09-09 20:00:00 26.4 15 Norte 33 Norte 0 -- -- 39
2020-09-09 19:00:00 27.5 16 Norte 29 Norte 0 -- -- 36
2020-09-09 18:00:00 27.9 10 Nordeste 19 Este 0 -- -- 32
2020-09-09 17:00:00 28.1 9 Norte 23 Norte 0 -- -- 32
2020-09-09 16:00:00 27 12 Nordeste 24 Nordeste 0 -- -- 33
2020-09-09 15:00:00 27.9 12 Norte 25 Norte 0 -- -- 29
2020-09-09 14:00:00 26.2 9 Este 17 Nordeste 0 -- -- 36
2020-09-09 13:00:00 24.5 5 Este 12 Este 0 -- -- 41
2020-09-09 12:00:00 22.6 3 Este 12 Este 0 -- -- 45
2020-09-09 11:00:00 20.3 7 Nordeste 16 Nordeste 0 -- -- 45
2020-09-09 10:00:00 18.5 0 Calma 7 Sudoeste 0 -- -- 46
2020-09-09 09:00:00 14.2 2 Sudeste 11 Oeste 0 -- -- 61
2020-09-09 08:00:00 13.6 8 Oeste 14 Oeste 0 -- -- 58
2020-09-09 07:00:00 13 5 Oeste 13 Oeste 0 -- -- 61
2020-09-09 06:00:00 13.9 4 Oeste 9 Oeste 0 -- -- 57
2020-09-09 05:00:00 14.8 4 Sur 12 Oeste 0 -- -- 54
2020-09-09 04:00:00 14.6 4 Oeste 12 Oeste 0 -- -- 56
2020-09-09 03:00:00 15.2 8 Oeste 10 Oeste 0 -- -- 55
2020-09-09 02:00:00 15 4 Oeste 14 Oeste 0 -- -- 54
2020-09-09 01:00:00 15 4 Oeste 11 Nordeste 0 -- -- 55
2020-09-09 00:00:00 15.7 5 Oeste 10 Oeste 0 -- -- 50
2020-09-08 23:00:00 16.5 4 Oeste 9 Oeste 0 -- -- 49
2020-09-08 22:00:00 17.7 8 Oeste 10 Oeste 0 -- -- 46
2020-09-08 21:00:00 21.1 3 Oeste 11 Sudeste 0 -- -- 41
2020-09-08 20:00:00 24.1 8 Sudeste 22 Sudeste 0 -- -- 32
2020-09-08 19:00:00 25.1 9 Sudeste 21 Sudeste 0 -- -- 29
2020-09-08 18:00:00 25.4 9 Este 24 Este 0 -- -- 29
2020-09-08 17:00:00 25.5 12 Este 23 Este 0 -- -- 29
2020-09-08 16:00:00 24.7 10 Nordeste 22 Este 0 -- -- 30
2020-09-08 15:00:00 23.7 6 Nordeste 18 Nordeste 0 -- -- 33
2020-09-08 14:00:00 22.9 8 Este 18 Nordeste 0 -- -- 36
2020-09-08 13:00:00 21.5 6 Este 18 Nordeste 0 -- -- 38
2020-09-08 12:00:00 19.9 7 Norte 18 Norte 0 -- -- 45
2020-09-08 11:00:00 18.6 8 Nordeste 18 Nordeste 0 -- -- 50
2020-09-08 10:00:00 16.6 6 Norte 13 Norte 0 -- -- 57
2020-09-08 09:00:00 13 5 Oeste 15 Oeste 0 -- -- 71
2020-09-08 08:00:00 10.5 8 Oeste 16 Oeste 0 -- -- 78
2020-09-08 07:00:00 10.7 7 Oeste 14 Oeste 0 -- -- 78
2020-09-08 06:00:00 11.1 8 Oeste 14 Oeste 0 -- -- 77
2020-09-08 05:00:00 11.5 7 Oeste 16 Oeste 0 -- -- 75
2020-09-08 04:00:00 11.8 9 Oeste 13 Oeste 0 -- -- 74
2020-09-08 03:00:00 13.5 5 Oeste 19 Noroeste 0 -- -- 68
2020-09-08 02:00:00 14.8 11 Noroeste 23 Noroeste 0 -- -- 64
2020-09-08 01:00:00 15.2 15 Noroeste 34 Norte 0 -- -- 62
2020-09-08 00:00:00 15.5 18 Noroeste 35 Noroeste 0 -- -- 59
2020-09-07 23:00:00 15.7 19 Noroeste 34 Norte 0 -- -- 58
2020-09-07 22:00:00 16.3 18 Noroeste 32 Noroeste 0 -- -- 55
2020-09-07 21:00:00 17.3 14 Noroeste 48 Noroeste 0 -- -- 51
2020-09-07 20:00:00 19.1 27 Norte 55 Norte 0 -- -- 45
2020-09-07 19:00:00 20.7 28 Norte 49 Noroeste 0 -- -- 40
2020-09-07 18:00:00 22 26 Norte 46 Noroeste 0 -- -- 37
2020-09-07 17:00:00 22.4 21 Norte 46 Norte 0 -- -- 36
2020-09-07 16:00:00 22.2 24 Norte 48 Norte 0 -- -- 35
2020-09-07 15:00:00 21.8 22 Norte 51 Norte 0 -- -- 37
2020-09-07 14:00:00 21.4 24 Norte 53 Norte 0 -- -- 38
2020-09-07 13:00:00 20.5 24 Norte 54 Norte 0 -- -- 40
2020-09-07 12:00:00 19.2 27 Noroeste 49 Norte 0 -- -- 48
2020-09-07 11:00:00 17.9 23 Noroeste 50 Norte 0 -- -- 53
2020-09-07 10:00:00 16.8 22 Noroeste 42 Norte 0 -- -- 59
2020-09-07 09:00:00 15.5 16 Noroeste 41 Noroeste 0 -- -- 63
2020-09-07 08:00:00 14.1 10 Noroeste 28 Noroeste 0 -- -- 66
2020-09-07 07:00:00 14.9 11 Noroeste 20 Noroeste 0 -- -- 63
2020-09-07 06:00:00 14.7 10 Oeste 25 Noroeste 0 -- -- 66
2020-09-07 05:00:00 15.3 9 Noroeste 26 Noroeste 0 -- -- 63
2020-09-07 04:00:00 15.5 13 Noroeste 27 Noroeste 0 -- -- 64
2020-09-07 03:00:00 15.4 14 Noroeste 41 Noroeste 0 -- -- 64
2020-09-07 02:00:00 15.5 17 Noroeste 30 Noroeste 0 -- -- 64
2020-09-07 01:00:00 15.2 13 Noroeste 28 Noroeste 0 -- -- 64
2020-09-07 00:00:00 15.8 17 Noroeste 35 Noroeste 0 -- -- 62
2020-09-06 23:00:00 16.1 15 Norte 38 Noroeste 0 -- -- 63
2020-09-06 22:00:00 17.1 14 Norte 32 Noroeste 0 -- -- 61
2020-09-06 21:00:00 17.7 16 Norte 36 Noroeste 0 -- -- 58
2020-09-06 20:00:00 19.7 21 Norte 40 Norte 0 -- -- 49
2020-09-06 19:00:00 21.3 19 Norte 44 Noroeste 0 -- -- 47
2020-09-06 18:00:00 21.4 22 Noroeste 41 Noroeste 0 -- -- 47
2020-09-06 17:00:00 22.3 20 Norte 41 Norte 0 -- -- 47
2020-09-06 16:00:00 21.9 26 Norte 46 Noroeste 0 -- -- 49
2020-09-06 15:00:00 21.1 23 Norte 46 Noroeste 0 -- -- 54
2020-09-06 14:00:00 21.3 24 Noroeste 41 Noroeste 0 -- -- 53
2020-09-06 13:00:00 20.2 19 Norte 37 Norte 0 -- -- 57
2020-09-06 12:00:00 18.9 16 Norte 35 Norte 0 -- -- 62
2020-09-06 11:00:00 18.2 18 Norte 31 Norte 0 -- -- 65
2020-09-06 10:00:00 17.7 13 Norte 28 Norte 0 -- -- 69
2020-09-06 09:00:00 17.2 12 Noroeste 25 Noroeste 0 -- -- 71
2020-09-06 08:00:00 15.6 9 Noroeste 26 Noroeste 0 -- -- 77
2020-09-06 07:00:00 15.3 6 Oeste 13 Noroeste 0 -- -- 78
2020-09-06 06:00:00 16.1 7 Noroeste 15 Noroeste 0 -- -- 75
2020-09-06 05:00:00 16.6 6 Noroeste 23 Norte 0 -- -- 73
2020-09-06 04:00:00 17.5 14 Noroeste 26 Noroeste 0 -- -- 71
2020-09-06 03:00:00 17.6 9 Noroeste 23 Noroeste 0 -- -- 72
2020-09-06 02:00:00 17.7 13 Noroeste 27 Norte 0 -- -- 71
2020-09-06 01:00:00 17.6 13 Noroeste 28 Noroeste 0 -- -- 73
2020-09-06 00:00:00 17.6 10 Noroeste 23 Noroeste 0 -- -- 75
2020-09-05 23:00:00 18.2 12 Noroeste 23 Noroeste 0 -- -- 73
2020-09-05 22:00:00 18.7 5 Noroeste 23 Norte 0 -- -- 71
2020-09-05 21:00:00 20.1 10 Norte 29 Norte 0 -- -- 66
2020-09-05 20:00:00 22.5 13 Norte 33 Norte 0 -- -- 58
2020-09-05 19:00:00 24.9 15 Norte 38 Norte 0 -- -- 52
2020-09-05 18:00:00 26.9 16 Norte 38 Norte 0 -- -- 49
2020-09-05 17:00:00 27.7 17 Norte 34 Norte 0 -- -- 47
2020-09-05 16:00:00 28.8 14 Norte 27 Norte 0 -- -- 42
2020-09-05 15:00:00 27.8 11 Norte 25 Norte 0 -- -- 44
2020-09-05 14:00:00 26.3 10 Nordeste 26 Norte 0 -- -- 48
2020-09-05 13:00:00 25.4 12 Norte 26 Norte 0 -- -- 48
2020-09-05 12:00:00 24 11 Norte 23 Norte 0 -- -- 51
2020-09-05 11:00:00 22.8 11 Norte 21 Norte 0 -- -- 58
2020-09-05 10:00:00 20.9 9 Norte 18 Norte 0 -- -- 59
2020-09-05 09:00:00 17.1 0 Calma 7 Oeste 0 -- -- 65
2020-09-05 08:00:00 15 2 Oeste 10 Oeste 0 -- -- 65
2020-09-05 07:00:00 15.8 2 Sur 10 Oeste 0 -- -- 65
2020-09-05 06:00:00 16.3 3 Sudoeste 7 Oeste 0 -- -- 62
2020-09-05 05:00:00 16.7 2 Sudoeste 14 Oeste 0 -- -- 59
2020-09-05 04:00:00 17.3 6 Oeste 10 Oeste 0 -- -- 54
2020-09-05 03:00:00 17.5 5 Oeste 10 Oeste 0 -- -- 53
2020-09-05 02:00:00 18 2 Noroeste 10 Oeste 0 -- -- 52
2020-09-05 01:00:00 19 3 Oeste 14 Oeste 0 -- -- 49
2020-09-05 00:00:00 19.8 5 Oeste 9 Oeste 0 -- -- 47
2020-09-04 23:00:00 21.8 3 Noroeste 12 Este 0 -- -- 40
2020-09-04 22:00:00 23.6 4 Nordeste 12 Sudeste 0 -- -- 36
2020-09-04 21:00:00 27 2 Sudeste 17 Este 0 -- -- 33
2020-09-04 20:00:00 29.8 8 Sudeste 24 Este 0 -- -- 27
2020-09-04 19:00:00 30.7 13 Sudeste 27 Este 0 -- -- 28
2020-09-04 18:00:00 31.3 17 Este 30 Este 0 -- -- 30
2020-09-04 17:00:00 31.3 14 Sudeste 31 Este 0 -- -- 33
2020-09-04 16:00:00 30.9 13 Sudeste 27 Este 0 -- -- 36
2020-09-04 15:00:00 30 10 Este 24 Este 0 -- -- 40
2020-09-04 14:00:00 28.7 12 Este 23 Este 0 -- -- 42
2020-09-04 13:00:00 27.4 9 Sudeste 24 Este 0 -- -- 45
2020-09-04 12:00:00 25.2 5 Nordeste 14 Nordeste 0 -- -- 52
2020-09-04 11:00:00 22.8 6 Nordeste 14 Este 0 -- -- 61
2020-09-04 10:00:00 20.8 6 Sur 13 Sudoeste 0 -- -- 67
2020-09-04 09:00:00 16 0 Calma 9 Oeste 0 -- -- 62
2020-09-04 08:00:00 13.4 0 Calma 6 Sudoeste 0 -- -- 56
2020-09-04 07:00:00 14.1 2 Sudoeste 9 Oeste 0 -- -- 54
2020-09-04 06:00:00 14.4 4 Sudoeste 9 Sudoeste 0 -- -- 51
2020-09-04 05:00:00 14.2 6 Oeste 12 Oeste 0 -- -- 54
2020-09-04 04:00:00 14.6 3 Sudoeste 13 Oeste 0 -- -- 54
2020-09-04 03:00:00 15.8 4 Oeste 17 Oeste 0 -- -- 49
2020-09-04 02:00:00 15.8 6 Oeste 9 Oeste 0 -- -- 50
2020-09-04 01:00:00 16.4 0 Calma 10 Oeste 0 -- -- 49
2020-09-04 00:00:00 17 0 Calma 8 Oeste 0 -- -- 50
2020-09-03 23:00:00 18.3 5 Oeste 13 Oeste 0 -- -- 46
2020-09-03 22:00:00 19.4 6 Oeste 9 Oeste 0 -- -- 45
2020-09-03 21:00:00 22.9 3 Sudoeste 10 Oeste 0 -- -- 41
2020-09-03 20:00:00 26.9 4 Nordeste 11 Nordeste 0 -- -- 34
2020-09-03 19:00:00 28 7 Nordeste 14 Este 0 -- -- 29
2020-09-03 18:00:00 28.7 6 Nordeste 16 Nordeste 0 -- -- 27
2020-09-03 17:00:00 27.7 10 Nordeste 20 Nordeste 0 -- -- 32
2020-09-03 16:00:00 27 9 Nordeste 20 Nordeste 0 -- -- 35
2020-09-03 15:00:00 25.4 9 Nordeste 21 Nordeste 0 -- -- 38
2020-09-03 14:00:00 24.2 9 Nordeste 16 Nordeste 0 -- -- 40
2020-09-03 13:00:00 22.1 9 Nordeste 18 Este 0 -- -- 42
2020-09-03 12:00:00 20.6 8 Nordeste 15 Nordeste 0 -- -- 45
2020-09-03 11:00:00 19.6 4 Este 12 Este 0 -- -- 47
2020-09-03 10:00:00 17.5 3 Este 8 Nordeste 0 -- -- 52
2020-09-03 09:00:00 13.4 3 Oeste 8 Oeste 0 -- -- 66
2020-09-03 08:00:00 9.9 3 Oeste 12 Oeste 0 -- -- 74
2020-09-03 07:00:00 10.5 5 Oeste 13 Oeste 0 -- -- 71
2020-09-03 06:00:00 10.8 7 Oeste 13 Oeste 0 -- -- 73
2020-09-03 05:00:00 11.3 7 Oeste 14 Oeste 0 -- -- 72
2020-09-03 04:00:00 11.5 6 Oeste 13 Oeste 0 -- -- 73
2020-09-03 03:00:00 12.1 8 Oeste 15 Oeste 0 -- -- 71
2020-09-03 02:00:00 13.3 5 Oeste 14 Oeste 0 -- -- 69
2020-09-03 01:00:00 13.8 10 Oeste 15 Oeste 0 -- -- 67
2020-09-03 00:00:00 16.4 5 Oeste 17 Noroeste 0 -- -- 60
2020-09-02 23:00:00 17.5 9 Noroeste 19 Norte 0 -- -- 57
2020-09-02 22:00:00 18.9 12 Norte 23 Noroeste 0 -- -- 51
2020-09-02 21:00:00 20.7 11 Norte 23 Norte 0 -- -- 43
2020-09-02 20:00:00 23 14 Norte 24 Norte 0 -- -- 37
2020-09-02 19:00:00 25.3 13 Norte 28 Norte 0 -- -- 32
2020-09-02 18:00:00 26 17 Norte 33 Norte 0 -- -- 29
2020-09-02 17:00:00 26.2 14 Norte 33 Norte 0 -- -- 30
2020-09-02 16:00:00 25.6 14 Norte 34 Norte 0 -- -- 34
2020-09-02 15:00:00 24.5 15 Norte 33 Norte 0 -- -- 36
2020-09-02 14:00:00 23.3 17 Norte 33 Norte 0 -- -- 38
2020-09-02 13:00:00 22.6 13 Norte 35 Norte 0 -- -- 39
2020-09-02 12:00:00 21.4 19 Norte 36 Norte 0 -- -- 39
2020-09-02 11:00:00 20.8 18 Noroeste 33 Noroeste 0 -- -- 37
2020-09-02 10:00:00 18.8 17 Noroeste 30 Noroeste 0 -- -- 50
2020-09-02 09:00:00 16.6 15 Oeste 25 Oeste 0 -- -- 61
2020-09-02 08:00:00 14.3 12 Oeste 19 Oeste 0 -- -- 67
2020-09-02 07:00:00 13.7 8 Oeste 15 Sudoeste 0 -- -- 70
2020-09-02 06:00:00 14.2 8 Oeste 18 Oeste 0 -- -- 69
2020-09-02 05:00:00 14.8 9 Oeste 17 Oeste 0 -- -- 66
2020-09-02 04:00:00 15 10 Oeste 22 Oeste 0 -- -- 65
2020-09-02 03:00:00 15.1 10 Oeste 20 Oeste 0 -- -- 63
2020-09-02 02:00:00 15.6 13 Oeste 21 Noroeste 0 -- -- 59
2020-09-02 01:00:00 16.4 11 Oeste 24 Noroeste 0 -- -- 52
2020-09-02 00:00:00 17.4 14 Noroeste 29 Noroeste 0 -- -- 52
2020-09-01 23:00:00 18.3 11 Noroeste 23 Noroeste 0 -- -- 49
2020-09-01 22:00:00 19.2 13 Noroeste 34 Norte 0 -- -- 47
2020-09-01 21:00:00 20.7 15 Norte 34 Norte 0 -- -- 42
2020-09-01 20:00:00 23.2 20 Norte 40 Norte 0 -- -- 39
2020-09-01 19:00:00 24.5 7 Nordeste 21 Norte 0 -- -- 32
2020-09-01 18:00:00 25 10 Norte 24 Norte 0 -- -- 28
2020-09-01 17:00:00 24.4 12 Nordeste 24 Norte 0 -- -- 29
2020-09-01 16:00:00 25.3 12 Nordeste 23 Norte 0 -- -- 30
2020-09-01 15:00:00 24.6 10 Nordeste 22 Norte 0 -- -- 32
2020-09-01 14:00:00 23.4 6 Nordeste 18 Este 0 -- -- 35
2020-09-01 13:00:00 22.7 10 Este 17 Nordeste 0 -- -- 40
2020-09-01 12:00:00 20.1 5 Este 10 Este 0 -- -- 48
2020-09-01 11:00:00 18.3 4 Nordeste 6 Nordeste 0 -- -- 54
2020-09-01 10:00:00 16.5 0 Calma 7 Sur 0 -- -- 61
2020-09-01 09:00:00 15.1 2 Sudoeste 5 Noroeste 0 -- -- 59
2020-09-01 08:00:00 14.4 2 Oeste 7 Oeste 0 -- -- 58
2020-09-01 07:00:00 15.2 3 Norte 19 Oeste 0 -- -- 54
2020-09-01 06:00:00 15.2 9 Oeste 17 Sudoeste 0 -- -- 53
2020-09-01 05:00:00 15 6 Oeste 15 Oeste 0 -- -- 53
2020-09-01 04:00:00 14.9 8 Oeste 12 Oeste 0 -- -- 55
2020-09-01 03:00:00 14.6 5 Oeste 10 Noroeste 0 -- -- 60
2020-09-01 02:00:00 14.8 4 Oeste 13 Oeste 0 -- -- 60
2020-09-01 01:00:00 15.4 5 Oeste 12 Noroeste 0 -- -- 59
2020-09-01 00:00:00 17.6 5 Oeste 11 Noroeste 0 -- -- 54
2020-08-31 23:00:00 18.5 6 Noroeste 14 Noroeste 0 -- -- 51
2020-08-31 22:00:00 18.2 6 Oeste 13 Noroeste 0 -- -- 40
2020-08-31 21:00:00 19.8 6 Oeste 9 Oeste 0 -- -- 39
2020-08-31 20:00:00 22.4 5 Nordeste 14 Norte 0 -- -- 31
2020-08-31 19:00:00 23.9 7 Nordeste 17 Norte 0 -- -- 27
2020-08-31 18:00:00 24 9 Nordeste 20 Nordeste 0 -- -- 27
2020-08-31 17:00:00 23.9 8 Nordeste 19 Este 0 -- -- 28
2020-08-31 16:00:00 23.2 9 Este 22 Este 0 -- -- 32
2020-08-31 15:00:00 22.4 11 Este 23 Nordeste 0 -- -- 35
2020-08-31 14:00:00 21.5 10 Nordeste 23 Este 0 -- -- 39
2020-08-31 13:00:00 20.1 9 Norte 21 Norte 0 -- -- 42
2020-08-31 12:00:00 18.8 8 Norte 25 Noroeste 0 -- -- 48
2020-08-31 11:00:00 17.8 10 Noroeste 23 Noroeste 0 -- -- 49
2020-08-31 10:00:00 15.9 11 Noroeste 21 Oeste 0 -- -- 58
2020-08-31 09:00:00 12.8 6 Oeste 18 Oeste 0 -- -- 70
2020-08-31 08:00:00 9.9 8 Oeste 15 Sudoeste 0 -- -- 78
2020-08-31 07:00:00 9.5 10 Oeste 15 Oeste 0 -- -- 80
2020-08-31 06:00:00 10.1 9 Oeste 14 Oeste 0 -- -- 79
2020-08-31 05:00:00 9.9 10 Oeste 13 Oeste 0 -- -- 81
2020-08-31 04:00:00 10.3 9 Oeste 15 Oeste 0 -- -- 79
2020-08-31 03:00:00 10.7 8 Oeste 15 Oeste 0 -- -- 78
2020-08-31 02:00:00 11.1 10 Oeste 14 Oeste 0 -- -- 76
2020-08-31 01:00:00 11.4 8 Oeste 14 Oeste 0 -- -- 75
2020-08-31 00:00:00 12.6 6 Oeste 14 Oeste 0 -- -- 72
2020-08-30 23:00:00 13.4 9 Oeste 17 Oeste 0 -- -- 66
2020-08-30 22:00:00 14.5 12 Noroeste 28 Noroeste 0 -- -- 60
2020-08-30 21:00:00 15.7 16 Norte 39 Norte 0 -- -- 61
2020-08-30 20:00:00 17.6 18 Norte 42 Norte 0 -- -- 53
2020-08-30 19:00:00 19.1 17 Norte 45 Norte 0 -- -- 46
2020-08-30 18:00:00 18.6 22 Norte 44 Norte 0 -- -- 47
2020-08-30 17:00:00 19.7 20 Noroeste 43 Noroeste 0 -- -- 44
2020-08-30 16:00:00 19.1 22 Noroeste 43 Norte 0 -- -- 45
2020-08-30 15:00:00 18.6 24 Norte 44 Norte 0 -- -- 49
2020-08-30 14:00:00 18.3 20 Norte 40 Noroeste 0 -- -- 49
2020-08-30 13:00:00 17.7 18 Noroeste 48 Noroeste 0 -- -- 49
2020-08-30 12:00:00 18.3 22 Norte 39 Noroeste 0 -- -- 46
2020-08-30 11:00:00 16.9 16 Norte 35 Noroeste 0 -- -- 49
2020-08-30 10:00:00 15.7 18 Noroeste 33 Noroeste 0 -- -- 53
2020-08-30 09:00:00 13.9 9 Oeste 17 Oeste 0 -- -- 61
2020-08-30 08:00:00 10.1 6 Oeste 12 Oeste 0 -- -- 75
2020-08-30 07:00:00 10.6 4 Sudoeste 10 Sudoeste 0 -- -- 72
2020-08-30 06:00:00 10.8 5 Sudoeste 13 Oeste 0 -- -- 72
2020-08-30 05:00:00 10.9 6 Oeste 12 Oeste 0 -- -- 73
2020-08-30 04:00:00 12.5 8 Oeste 25 Noroeste 0 -- -- 65
2020-08-30 03:00:00 13 13 Oeste 32 Noroeste 0 -- -- 63
2020-08-30 02:00:00 13.5 19 Noroeste 37 Noroeste 0 -- -- 60
2020-08-30 01:00:00 13.9 17 Noroeste 36 Noroeste 0 -- -- 52
2020-08-30 00:00:00 14.7 19 Noroeste 36 Noroeste 0 -- -- 61
2020-08-29 23:00:00 15 18 Noroeste 37 Noroeste 0 -- -- 61
2020-08-29 22:00:00 15.7 14 Noroeste 36 Noroeste 0 -- -- 61
2020-08-29 21:00:00 16.6 21 Noroeste 37 Noroeste 0 -- -- 58
2020-08-29 20:00:00 17.7 19 Noroeste 42 Norte 0 -- -- 57
2020-08-29 19:00:00 19.3 18 Noroeste 43 Noroeste 0 -- -- 50
2020-08-29 18:00:00 20.2 28 Noroeste 48 Noroeste 0 -- -- 43
2020-08-29 17:00:00 21.6 24 Norte 45 Norte 0 -- -- 39
2020-08-29 16:00:00 21.1 20 Norte 41 Norte 0 -- -- 41
2020-08-29 15:00:00 20.9 18 Norte 42 Norte 0 -- -- 42
2020-08-29 14:00:00 21.1 22 Norte 44 Noroeste 0 -- -- 42
2020-08-29 13:00:00 20.7 21 Norte 44 Noroeste 0 -- -- 40
2020-08-29 12:00:00 19.3 22 Norte 46 Norte 0 -- -- 47
2020-08-29 11:00:00 18.7 21 Norte 40 Norte 0 -- -- 49
2020-08-29 10:00:00 17.1 14 Norte 32 Noroeste 0 -- -- 54
2020-08-29 09:00:00 15.2 9 Noroeste 16 Oeste 0 -- -- 61
2020-08-29 08:00:00 11.9 6 Oeste 15 Oeste 0 -- -- 72
2020-08-29 07:00:00 12.6 8 Oeste 15 Sudoeste 0 -- -- 71
2020-08-29 06:00:00 14.1 5 Oeste 22 Noroeste 0 -- -- 66
2020-08-29 05:00:00 14.9 8 Noroeste 15 Noroeste 0 -- -- 63
2020-08-29 04:00:00 15.3 9 Noroeste 21 Noroeste 0 -- -- 61
2020-08-29 03:00:00 15.6 9 Noroeste 27 Noroeste 0 -- -- 60
2020-08-29 02:00:00 16 10 Noroeste 23 Norte 0 -- -- 58
2020-08-29 01:00:00 16.2 12 Noroeste 26 Noroeste 0 -- -- 61
2020-08-29 00:00:00 16.3 14 Noroeste 29 Noroeste 0 -- -- 65
2020-08-28 23:00:00 16.6 12 Noroeste 32 Noroeste 0 -- -- 65
2020-08-28 22:00:00 17 10 Noroeste 32 Noroeste 0 -- -- 66
2020-08-28 21:00:00 17.3 15 Norte 30 Norte 0 -- -- 66
2020-08-28 20:00:00 18 16 Norte 38 Norte 0 -- -- 63
2020-08-28 19:00:00 19.1 15 Norte 36 Norte 0 -- -- 63
2020-08-28 18:00:00 19.7 21 Norte 39 Norte 0 -- -- 62
2020-08-28 17:00:00 20.1 19 Norte 42 Norte 0 -- -- 63
2020-08-28 16:00:00 21.7 19 Norte 37 Noroeste 0 -- -- 60
2020-08-28 15:00:00 21.9 21 Norte 39 Norte 0 -- -- 61
2020-08-28 14:00:00 23.5 16 Norte 37 Norte 0 -- -- 56
2020-08-28 13:00:00 22.6 19 Norte 36 Noroeste 0 -- -- 61
2020-08-28 12:00:00 23.1 15 Norte 26 Noroeste 0 -- -- 68
2020-08-28 11:00:00 23.2 12 Norte 22 Norte 0 -- -- 67
2020-08-28 10:00:00 22.1 8 Norte 24 Noroeste 0 -- -- 70
2020-08-28 09:00:00 20.9 8 Norte 14 Noroeste 0 -- -- 74
2020-08-28 08:00:00 19.8 4 Oeste 8 Oeste 0 -- -- 80
2020-08-28 07:00:00 19.4 2 Oeste 12 Oeste 0 -- -- 81
2020-08-28 06:00:00 18.4 5 Oeste 14 Oeste 0 -- -- 83
2020-08-28 05:00:00 18.4 6 Oeste 11 Oeste 0 -- -- 82
2020-08-28 04:00:00 18.3 3 Oeste 10 Oeste 0 -- -- 81
2020-08-28 03:00:00 19.3 2 Oeste 9 Noroeste 0 -- -- 78
2020-08-28 02:00:00 20.8 6 Oeste 10 Noroeste 0 -- -- 73
2020-08-28 01:00:00 21.8 6 Noroeste 28 Noroeste 0 -- -- 69
2020-08-28 00:00:00 22.4 10 Noroeste 22 Noroeste 0 -- -- 68
2020-08-27 23:00:00 23.5 8 Noroeste 28 Noroeste 0 -- -- 65
2020-08-27 22:00:00 25.4 13 Noroeste 26 Noroeste 0 -- -- 58
2020-08-27 21:00:00 27.9 14 Norte 32 Norte 0 -- -- 50
2020-08-27 20:00:00 31.9 7 Norte 23 Norte 0 -- -- 39
2020-08-27 19:00:00 32.6 7 Norte 15 Nordeste 0 -- -- 34
2020-08-27 18:00:00 32.6 7 Nordeste 17 Nordeste 0 -- -- 35
2020-08-27 17:00:00 32.9 7 Nordeste 15 Este 0 -- -- 32
2020-08-27 16:00:00 32.4 9 Este 16 Este 0 -- -- 37
2020-08-27 15:00:00 31.5 5 Norte 16 Este 0 -- -- 38
2020-08-27 14:00:00 29.6 9 Nordeste 24 Nordeste 0 -- -- 40
2020-08-27 13:00:00 28.4 10 Norte 22 Nordeste 0 -- -- 45
2020-08-27 12:00:00 27.1 9 Nordeste 17 Este 0 -- -- 53
2020-08-27 11:00:00 25.4 5 Nordeste 10 Este 0 -- -- 62
2020-08-27 10:00:00 23.1 5 Este 9 Este 0 -- -- 68
2020-08-27 09:00:00 20.3 4 Sur 7 Sudeste 0 -- -- 76
2020-08-27 08:00:00 18.7 0 Calma 10 Noroeste 0 -- -- 81
2020-08-27 07:00:00 19.2 3 Sudoeste 13 Oeste 0 -- -- 77
2020-08-27 06:00:00 19.6 5 Oeste 15 Sudoeste 0 -- -- 76
2020-08-27 05:00:00 19 4 Oeste 13 Sudoeste 0 -- -- 79
2020-08-27 04:00:00 19.2 7 Oeste 13 Oeste 0 -- -- 78
2020-08-27 03:00:00 20 3 Sudoeste 12 Oeste 0 -- -- 75
2020-08-27 02:00:00 20.8 7 Oeste 13 Oeste 0 -- -- 72
2020-08-27 01:00:00 22.2 7 Oeste 12 Noroeste 0 -- -- 65
2020-08-27 00:00:00 23.2 6 Oeste 15 Noroeste 0 -- -- 62
2020-08-26 23:00:00 24.4 8 Noroeste 14 Oeste 0 -- -- 60
2020-08-26 22:00:00 26.5 3 Oeste 23 Norte 0 -- -- 55
2020-08-26 21:00:00 28.3 10 Noroeste 28 Noroeste 0 -- -- 51
2020-08-26 20:00:00 31.7 6 Norte 16 Norte 0 -- -- 40
2020-08-26 19:00:00 32.2 6 Norte 19 Norte 0 -- -- 37
2020-08-26 18:00:00 32.3 8 Nordeste 14 Este 0 -- -- 36
2020-08-26 17:00:00 32 7 Este 15 Este 0 -- -- 38
2020-08-26 16:00:00 31.5 8 Este 15 Nordeste 0 -- -- 39
2020-08-26 15:00:00 30.2 8 Este 18 Nordeste 0 -- -- 40
2020-08-26 14:00:00 29.1 9 Este 19 Nordeste 0 -- -- 46
2020-08-26 13:00:00 27.1 9 Nordeste 20 Norte 0 -- -- 49
2020-08-26 12:00:00 26 10 Norte 24 Noroeste 0 -- -- 51
2020-08-26 11:00:00 24.2 10 Norte 24 Norte 0 -- -- 56
2020-08-26 10:00:00 22.4 10 Norte 21 Norte 0 -- -- 60
2020-08-26 09:00:00 18.7 0 Calma 8 Noroeste 0 -- -- 72
2020-08-26 08:00:00 16.5 0 Calma 10 Oeste 0 -- -- 79
2020-08-26 07:00:00 16.8 6 Oeste 8 Oeste 0 -- -- 77
2020-08-26 06:00:00 18 3 Noroeste 14 Oeste 0 -- -- 72
2020-08-26 05:00:00 19.2 9 Oeste 13 Oeste 0 -- -- 68
2020-08-26 04:00:00 19.4 6 Oeste 14 Oeste 0 -- -- 67
2020-08-26 03:00:00 18.7 3 Oeste 14 Noroeste 0 -- -- 68
2020-08-26 02:00:00 19.7 5 Sudoeste 13 Norte 0 -- -- 64
2020-08-26 01:00:00 21.6 5 Norte 12 Norte 0 -- -- 58
2020-08-26 00:00:00 22.9 6 Norte 21 Norte 0 -- -- 53
2020-08-25 23:00:00 24.6 3 Oeste 30 Norte 0 -- -- 51
2020-08-25 22:00:00 26.2 12 Norte 26 Norte 0 -- -- 47
2020-08-25 21:00:00 29.9 4 Oeste 8 Norte 0 -- -- 35
2020-08-25 20:00:00 32.6 5 Norte 11 Nordeste 0 -- -- 30
2020-08-25 19:00:00 32.9 6 Nordeste 18 Nordeste 0 -- -- 28
2020-08-25 18:00:00 32.8 11 Nordeste 23 Nordeste 0 -- -- 27
2020-08-25 17:00:00 33 12 Nordeste 23 Este 0 -- -- 26
2020-08-25 16:00:00 32.5 10 Nordeste 24 Nordeste 0 -- -- 26
2020-08-25 15:00:00 31 12 Nordeste 22 Nordeste 0 -- -- 32
2020-08-25 14:00:00 29.4 9 Nordeste 22 Este 0 -- -- 37
2020-08-25 13:00:00 27.3 10 Nordeste 16 Nordeste 0 -- -- 43
2020-08-25 12:00:00 25.6 6 Nordeste 13 Nordeste 0 -- -- 46
2020-08-25 11:00:00 23.7 4 Nordeste 8 Nordeste 0 -- -- 52
2020-08-25 10:00:00 20.8 4 Este 9 Este 0 -- -- 59
2020-08-25 09:00:00 18 0 Calma 9 Noroeste 0 -- -- 68
2020-08-25 08:00:00 15.6 4 Oeste 10 Oeste 0 -- -- 73
2020-08-25 07:00:00 16.4 5 Noroeste 7 Noroeste 0 -- -- 70
2020-08-25 06:00:00 16.8 4 Oeste 9 Oeste 0 -- -- 68
2020-08-25 05:00:00 17.3 4 Oeste 9 Oeste 0 -- -- 66
2020-08-25 04:00:00 17.7 3 Oeste 10 Oeste 0 -- -- 64
2020-08-25 03:00:00 18 4 Oeste 12 Oeste 0 -- -- 63
2020-08-25 02:00:00 18.8 6 Oeste 13 Oeste 0 -- -- 60
2020-08-25 01:00:00 18.6 4 Sudoeste 11 Oeste 0 -- -- 62
2020-08-25 00:00:00 19.1 6 Oeste 15 Oeste 0 -- -- 60
2020-08-24 23:00:00 20 11 Oeste 14 Oeste 0 -- -- 58
2020-08-24 22:00:00 21.8 6 Oeste 8 Oeste 0 -- -- 53
2020-08-24 21:00:00 25.2 2 Oeste 6 Este 0 -- -- 46
2020-08-24 20:00:00 27 4 Este 13 Este 0 -- -- 41
2020-08-24 19:00:00 27.6 6 Nordeste 18 Este 0 -- -- 40
2020-08-24 18:00:00 27.8 5 Nordeste 20 Nordeste 0 -- -- 38
2020-08-24 17:00:00 26.9 8 Norte 24 Nordeste 0 -- -- 41
2020-08-24 16:00:00 26.5 12 Norte 26 Norte 0 -- -- 42
2020-08-24 15:00:00 25.5 12 Norte 26 Nordeste 0 -- -- 45
2020-08-24 14:00:00 25 14 Norte 28 Norte 0 -- -- 45
2020-08-24 13:00:00 23.7 14 Norte 33 Norte 0 -- -- 48
2020-08-24 12:00:00 22.2 15 Norte 32 Norte 0 -- -- 52
2020-08-24 11:00:00 21 17 Norte 28 Norte 0 -- -- 55
2020-08-24 10:00:00 19.7 12 Noroeste 22 Noroeste 0 -- -- 59
2020-08-24 09:00:00 17.3 9 Oeste 18 Oeste 0 -- -- 67
2020-08-24 08:00:00 15.3 8 Oeste 17 Oeste 0 -- -- 75
2020-08-24 07:00:00 14.9 10 Oeste 17 Oeste 0 -- -- 78
2020-08-24 06:00:00 15.3 10 Oeste 15 Oeste 0 -- -- 76
2020-08-24 05:00:00 15.4 4 Oeste 13 Oeste 0 -- -- 74
2020-08-24 04:00:00 15.3 9 Oeste 13 Oeste 0 -- -- 76
2020-08-24 03:00:00 16 7 Oeste 12 Noroeste 0 -- -- 72
2020-08-24 02:00:00 16.5 5 Oeste 12 Noroeste 0 -- -- 72
2020-08-24 01:00:00 17.2 6 Oeste 17 Noroeste 0 -- -- 68
2020-08-24 00:00:00 18.5 10 Noroeste 22 Norte 0 -- -- 64
2020-08-23 23:00:00 19.5 9 Noroeste 19 Noroeste 0 -- -- 62
2020-08-23 22:00:00 20.6 6 Noroeste 17 Norte 0 -- -- 59
2020-08-23 21:00:00 21.9 8 Norte 31 Norte 0 -- -- 55
2020-08-23 20:00:00 23.8 15 Norte 31 Nordeste 0 -- -- 48
2020-08-23 19:00:00 25.8 17 Norte 37 Norte 0 -- -- 43
2020-08-23 18:00:00 27.2 18 Norte 36 Noroeste 0 -- -- 36
2020-08-23 17:00:00 27.3 17 Norte 35 Norte 0 -- -- 36
2020-08-23 16:00:00 27 17 Norte 34 Norte 0 -- -- 37
2020-08-23 15:00:00 25.4 16 Norte 42 Noroeste 0 -- -- 40
2020-08-23 14:00:00 25.2 15 Norte 35 Norte 0 -- -- 41
2020-08-23 13:00:00 23.8 16 Norte 33 Norte 0 -- -- 45
2020-08-23 12:00:00 22.8 15 Norte 30 Norte 0 -- -- 49
2020-08-23 11:00:00 21.7 15 Norte 30 Norte 0 -- -- 50
2020-08-23 10:00:00 20.4 14 Norte 27 Norte 0 -- -- 58
2020-08-23 09:00:00 19.1 12 Norte 23 Noroeste 0 -- -- 65
2020-08-23 08:00:00 18.5 10 Norte 17 Nordeste 0 -- -- 70
2020-08-23 07:00:00 18.8 5 Norte 16 Noroeste 0 -- -- 66
2020-08-23 06:00:00 18.6 6 Noroeste 19 Noroeste 0 -- -- 68
2020-08-23 05:00:00 18.7 9 Noroeste 21 Noroeste 0 -- -- 69
2020-08-23 04:00:00 18.4 10 Noroeste 18 Noroeste 0 -- -- 72
2020-08-23 03:00:00 17.3 8 Noroeste 12 Noroeste 0 -- -- 76
2020-08-23 02:00:00 17.3 6 Oeste 13 Noroeste 0 -- -- 74
2020-08-23 01:00:00 18.4 6 Oeste 14 Noroeste 0 -- -- 70
2020-08-23 00:00:00 19.4 8 Noroeste 30 Noroeste 0 -- -- 66